createdAt,value
2023-04-19T00:02:18.569Z,46.80
2023-04-19T00:04:47.819Z,46.80
2023-04-19T00:07:15.132Z,46.80
2023-04-19T00:09:42.280Z,46.80
2023-04-19T00:12:09.411Z,46.80
2023-04-19T00:14:36.495Z,46.80
2023-04-19T00:17:03.933Z,46.80
2023-04-19T00:19:31.209Z,46.80
2023-04-19T00:21:58.346Z,46.80
2023-04-19T00:24:25.882Z,46.80
2023-04-19T00:26:53.015Z,46.80
2023-04-19T00:29:20.226Z,46.80
2023-04-19T00:31:47.353Z,46.80
2023-04-19T00:34:14.919Z,46.80
2023-04-19T00:36:42.252Z,46.80
2023-04-19T00:39:09.366Z,46.70
2023-04-19T00:41:36.446Z,46.70
2023-04-19T00:44:03.537Z,46.70
2023-04-19T00:46:30.913Z,46.70
2023-04-19T00:48:58.306Z,46.70
2023-04-19T00:51:27.168Z,46.70
2023-04-19T00:53:54.649Z,46.70
2023-04-19T00:56:24.251Z,46.70
2023-04-19T00:58:51.783Z,46.70
2023-04-19T01:01:19.627Z,46.70
2023-04-19T01:03:47.730Z,46.70
2023-04-19T01:06:16.415Z,46.70
2023-04-19T01:08:43.672Z,46.70
2023-04-19T01:11:11.036Z,46.70
2023-04-19T01:13:38.523Z,46.70
2023-04-19T01:16:07.145Z,46.70
2023-04-19T01:18:37.716Z,46.70
2023-04-19T01:21:05.111Z,46.70
2023-04-19T01:23:32.263Z,46.60
2023-04-19T01:26:01.363Z,46.60
2023-04-19T01:28:28.813Z,46.60
2023-04-19T01:30:56.090Z,46.60
2023-04-19T01:33:23.776Z,46.50
2023-04-19T01:35:51.055Z,46.50
2023-04-19T01:38:18.394Z,46.50
2023-04-19T01:40:45.810Z,46.50
2023-04-19T01:43:15.030Z,47.00
2023-04-19T01:45:42.131Z,46.40
2023-04-19T01:48:09.405Z,46.50
2023-04-19T01:50:36.549Z,46.40
2023-04-19T01:53:03.792Z,46.40
2023-04-19T01:55:30.969Z,46.50
2023-04-19T01:57:58.087Z,46.40
2023-04-19T02:00:25.415Z,46.40
2023-04-19T02:02:52.663Z,46.40
2023-04-19T02:05:20.045Z,46.40
2023-04-19T02:07:47.233Z,46.40
2023-04-19T02:10:14.418Z,46.50
2023-04-19T02:12:43.033Z,46.40
2023-04-19T02:15:10.584Z,46.40
2023-04-19T02:17:39.015Z,46.40
2023-04-19T02:20:08.268Z,46.40
2023-04-19T02:22:35.523Z,46.40
2023-04-19T02:25:02.599Z,46.30
2023-04-19T02:27:29.787Z,46.40
2023-04-19T02:29:57.004Z,46.40
2023-04-19T02:32:24.166Z,46.40
2023-04-19T02:34:51.300Z,46.30
2023-04-19T02:37:18.655Z,46.40
2023-04-19T02:39:46.246Z,46.40
2023-04-19T02:42:13.595Z,46.30
2023-04-19T02:44:40.766Z,46.30
2023-04-19T02:47:08.300Z,46.40
2023-04-19T02:49:37.228Z,46.30
2023-04-19T02:52:04.612Z,46.30
2023-04-19T02:54:33.353Z,46.90
2023-04-19T02:57:01.187Z,46.30
2023-04-19T02:59:28.277Z,46.30
2023-04-19T03:01:55.503Z,46.30
2023-04-19T03:04:22.882Z,46.30
2023-04-19T03:06:49.998Z,46.30
2023-04-19T03:09:17.206Z,46.40
2023-04-19T03:11:44.285Z,46.30
2023-04-19T03:14:11.486Z,46.30
2023-04-19T03:16:39.431Z,46.30
2023-04-19T03:19:06.589Z,46.30
2023-04-19T03:21:33.767Z,46.30
2023-04-19T03:24:01.780Z,46.30
2023-04-19T03:26:28.909Z,46.30
2023-04-19T03:28:56.055Z,46.30
2023-04-19T03:31:23.187Z,46.30
2023-04-19T03:33:50.997Z,46.30
2023-04-19T03:36:18.158Z,46.20
2023-04-19T03:38:45.419Z,46.20
2023-04-19T03:41:26.920Z,46.20
2023-04-19T03:43:53.998Z,46.20
2023-04-19T03:46:21.585Z,46.10
2023-04-19T03:48:48.813Z,46.10
2023-04-19T03:51:16.958Z,46.10
2023-04-19T03:53:44.195Z,46.10
2023-04-19T03:56:11.340Z,46.10
2023-04-19T03:58:38.757Z,46.20
2023-04-19T04:01:08.574Z,46.10
2023-04-19T04:03:36.068Z,46.10
2023-04-19T04:06:03.618Z,46.10
2023-04-19T04:08:30.820Z,46.10
2023-04-19T04:10:57.965Z,46.10
2023-04-19T04:13:25.043Z,46.10
2023-04-19T04:15:52.202Z,46.10
2023-04-19T04:18:19.340Z,46.10
2023-04-19T04:20:46.469Z,46.10
2023-04-19T04:23:14.543Z,46.00
2023-04-19T04:25:43.169Z,46.00
2023-04-19T04:28:10.341Z,46.10
2023-04-19T04:30:37.777Z,46.00
2023-04-19T04:33:04.955Z,45.90
2023-04-19T04:35:32.744Z,46.00
2023-04-19T04:38:00.208Z,45.80
2023-04-19T04:40:28.033Z,45.70
2023-04-19T04:42:55.164Z,45.60
2023-04-19T04:45:22.620Z,45.50
2023-04-19T04:47:49.930Z,45.50
2023-04-19T04:50:17.162Z,45.50
2023-04-19T04:52:44.412Z,45.50
2023-04-19T04:55:11.591Z,45.50
2023-04-19T04:57:38.736Z,45.40
2023-04-19T05:00:07.096Z,45.40
2023-04-19T05:02:34.376Z,45.30
2023-04-19T05:05:01.563Z,45.20
2023-04-19T05:07:28.736Z,45.10
2023-04-19T05:09:55.937Z,45.00
2023-04-19T05:12:23.072Z,44.90
2023-04-19T05:14:50.246Z,44.80
2023-04-19T05:17:17.544Z,44.80
2023-04-19T05:19:44.825Z,44.70
2023-04-19T05:22:12.087Z,44.60
2023-04-19T05:24:41.160Z,44.40
2023-04-19T05:27:09.857Z,44.40
2023-04-19T05:29:37.660Z,44.30
2023-04-19T05:32:04.908Z,44.30
2023-04-19T05:34:32.033Z,44.40
2023-04-19T05:36:59.226Z,43.10
2023-04-19T05:39:26.602Z,42.20
2023-04-19T05:41:54.094Z,42.50
2023-04-19T05:44:21.325Z,43.10
2023-04-19T05:46:48.453Z,43.40
2023-04-19T05:49:15.609Z,43.60
2023-04-19T05:51:42.761Z,43.60
2023-04-19T05:54:12.861Z,44.10
2023-04-19T05:56:40.144Z,43.50
2023-04-19T05:59:08.499Z,43.40
2023-04-19T06:01:35.747Z,43.40
2023-04-19T06:04:03.186Z,43.40
2023-04-19T06:06:30.421Z,43.30
2023-04-19T06:08:57.597Z,43.20
2023-04-19T06:11:31.755Z,43.30
2023-04-19T06:14:06.392Z,43.40
2023-04-19T06:16:33.575Z,43.70
2023-04-19T06:19:01.089Z,43.80
2023-04-19T06:21:32.349Z,43.80
2023-04-19T06:23:59.616Z,43.70
2023-04-19T06:26:27.117Z,43.60
2023-04-19T06:28:54.277Z,43.60
2023-04-19T06:31:21.802Z,43.50
2023-04-19T06:33:49.268Z,43.40
2023-04-19T06:36:17.454Z,43.40
2023-04-19T06:38:46.620Z,43.30
2023-04-19T06:41:13.851Z,43.30
2023-04-19T06:43:42.891Z,43.10
2023-04-19T06:46:10.186Z,42.90
2023-04-19T06:48:38.287Z,42.80
2023-04-19T06:51:05.812Z,42.70
2023-04-19T06:53:33.014Z,42.60
2023-04-19T06:56:02.116Z,42.40
2023-04-19T06:58:30.534Z,42.40
2023-04-19T07:00:58.535Z,42.30
2023-04-19T07:03:26.403Z,42.40
2023-04-19T07:05:56.608Z,42.30
2023-04-19T07:08:32.160Z,42.10
2023-04-19T07:11:06.352Z,41.90
2023-04-19T07:13:33.492Z,41.70
2023-04-19T07:16:03.941Z,41.70
2023-04-19T07:18:31.870Z,41.60
2023-04-19T07:20:59.109Z,41.70
2023-04-19T07:23:26.191Z,41.50
2023-04-19T07:25:53.345Z,41.90
2023-04-19T07:28:20.542Z,41.20
2023-04-19T07:30:48.348Z,41.50
2023-04-19T07:33:16.065Z,41.70
2023-04-19T07:35:43.382Z,41.80
2023-04-19T07:38:10.476Z,41.80
2023-04-19T07:40:37.791Z,41.80
2023-04-19T07:43:05.574Z,41.80
2023-04-19T07:45:33.580Z,41.70
2023-04-19T07:48:00.914Z,41.60
2023-04-19T07:50:29.001Z,41.60
2023-04-19T07:52:56.905Z,41.50
2023-04-19T07:55:25.068Z,41.50
2023-04-19T07:57:52.499Z,41.30
2023-04-19T08:00:21.768Z,41.20
2023-04-19T08:02:49.812Z,41.00
2023-04-19T08:05:17.804Z,40.90
2023-04-19T08:07:45.446Z,40.90
2023-04-19T08:10:13.059Z,40.90
2023-04-19T08:12:56.996Z,40.90
2023-04-19T08:16:14.838Z,40.90
2023-04-19T08:18:16.379Z,40.80
2023-04-19T08:20:43.596Z,40.60
2023-04-19T08:23:21.537Z,40.50
2023-04-19T08:25:52.361Z,40.50
2023-04-19T08:28:19.682Z,40.50
2023-04-19T08:30:46.941Z,40.70
2023-04-19T08:33:14.118Z,40.60
2023-04-19T08:35:42.025Z,40.50
2023-04-19T08:38:10.202Z,40.70
2023-04-19T08:40:42.224Z,40.70
2023-04-19T08:43:09.515Z,40.40
2023-04-19T08:45:37.518Z,38.00
2023-04-19T08:48:06.523Z,38.40
2023-04-19T08:50:40.720Z,38.80
2023-04-19T08:53:24.992Z,39.10
2023-04-19T08:56:12.843Z,39.50
2023-04-19T09:01:30.904Z,39.70
2023-04-19T09:04:16.203Z,39.90
2023-04-19T09:06:47.944Z,39.90
2023-04-19T09:11:52.167Z,40.00
2023-04-19T09:14:21.156Z,40.00
2023-04-19T09:16:48.660Z,40.00
2023-04-19T09:19:23.928Z,40.00
2023-04-19T09:21:54.765Z,40.00
2023-04-19T09:25:14.538Z,39.90
2023-04-19T09:27:29.658Z,40.00
2023-04-19T09:30:00.358Z,39.90
2023-04-19T09:32:29.270Z,39.90
2023-04-19T09:34:59.176Z,39.90
2023-04-19T09:39:57.755Z,39.90
2023-04-19T09:42:47.353Z,39.90
2023-04-19T09:45:29.379Z,39.90
2023-04-19T09:48:10.352Z,40.10
2023-04-19T09:51:03.194Z,40.40
2023-04-19T09:53:36.917Z,39.70
2023-04-19T09:56:06.431Z,39.70
2023-04-19T09:58:49.953Z,39.60
2023-04-19T10:01:24.511Z,39.70
2023-04-19T10:03:52.876Z,39.70
2023-04-19T10:08:53.563Z,39.70
2023-04-19T10:11:22.976Z,39.60
2023-04-19T10:13:55.474Z,39.60
2023-04-19T10:16:22.908Z,39.50
2023-04-19T10:18:52.478Z,39.50
2023-04-19T10:21:21.198Z,39.40
2023-04-19T10:23:48.876Z,39.30
2023-04-19T10:26:16.323Z,39.20
2023-04-19T10:28:43.546Z,39.20
2023-04-19T10:31:13.863Z,39.20
2023-04-19T10:33:42.248Z,39.00
2023-04-19T10:36:11.302Z,38.80
2023-04-19T10:38:49.673Z,39.00
2023-04-19T10:41:19.258Z,38.60
2023-04-19T10:44:07.607Z,38.40
2023-04-19T10:46:40.404Z,38.00
2023-04-19T10:49:10.105Z,36.90
2023-04-19T10:51:47.765Z,37.50
2023-04-19T10:54:32.026Z,37.90
2023-04-19T10:57:08.014Z,38.20
2023-04-19T10:59:36.922Z,38.20
2023-04-19T11:02:06.420Z,38.20
2023-04-19T11:04:58.674Z,38.00
2023-04-19T11:07:25.861Z,37.70
2023-04-19T11:09:53.139Z,37.70
2023-04-19T11:12:21.567Z,37.80
2023-04-19T11:14:57.812Z,38.10
2023-04-19T11:17:32.071Z,38.10
2023-04-19T11:20:02.923Z,38.20
2023-04-19T11:22:38.865Z,38.20
2023-04-19T11:25:21.177Z,38.20
2023-04-19T11:27:53.649Z,37.90
2023-04-19T11:30:23.099Z,37.80
2023-04-19T11:32:53.430Z,38.00
2023-04-19T11:35:23.427Z,38.10
2023-04-19T11:37:51.304Z,38.00
2023-04-19T11:40:19.940Z,37.70
2023-04-19T11:42:47.557Z,37.50
2023-04-19T11:45:39.664Z,37.30
2023-04-19T11:48:13.560Z,37.10
2023-04-19T11:50:42.984Z,37.50
2023-04-19T11:53:14.853Z,37.60
2023-04-19T11:55:58.059Z,37.50
2023-04-19T11:58:32.245Z,37.60
2023-04-19T12:01:13.651Z,37.50
2023-04-19T12:03:45.512Z,37.60
2023-04-19T12:06:16.198Z,37.60
2023-04-19T12:08:45.638Z,37.40
2023-04-19T12:11:13.204Z,37.40
2023-04-19T12:13:41.093Z,37.60
2023-04-19T12:16:09.021Z,37.50
2023-04-19T12:18:50.711Z,37.50
2023-04-19T12:21:31.284Z,37.50
2023-04-19T12:24:00.465Z,35.80
2023-04-19T12:26:29.133Z,35.20
2023-04-19T12:28:57.271Z,36.00
2023-04-19T12:31:24.784Z,36.30
2023-04-19T12:33:52.088Z,36.70
2023-04-19T12:36:19.513Z,37.00
2023-04-19T12:38:47.119Z,37.00
2023-04-19T12:41:14.284Z,37.00
2023-04-19T12:43:41.450Z,37.10
2023-04-19T12:46:08.644Z,37.20
2023-04-19T12:48:36.148Z,37.30
2023-04-19T12:51:04.526Z,37.50
2023-04-19T12:53:31.694Z,37.70
2023-04-19T12:55:58.867Z,37.90
2023-04-19T12:58:28.307Z,37.90
2023-04-19T13:00:55.566Z,37.80
2023-04-19T13:03:23.672Z,37.90
2023-04-19T13:05:51.277Z,37.90
2023-04-19T13:08:28.185Z,38.10
2023-04-19T13:11:01.094Z,38.30
2023-04-19T13:13:29.889Z,38.60
2023-04-19T13:15:57.106Z,38.50
2023-04-19T13:18:24.742Z,38.50
2023-04-19T13:20:54.041Z,38.20
2023-04-19T13:23:21.760Z,38.40
2023-04-19T13:25:48.900Z,38.40
2023-04-19T13:28:16.032Z,38.20
2023-04-19T13:30:43.164Z,38.40
2023-04-19T13:33:10.420Z,38.30
2023-04-19T13:35:44.210Z,38.40
2023-04-19T13:38:11.398Z,38.20
2023-04-19T13:40:38.609Z,38.10
2023-04-19T13:43:05.744Z,37.90
2023-04-19T13:45:32.926Z,38.00
2023-04-19T13:48:00.141Z,37.90
2023-04-19T13:50:27.608Z,37.80
2023-04-19T13:52:54.720Z,37.70
2023-04-19T13:55:21.958Z,37.70
2023-04-19T13:57:49.294Z,38.00
2023-04-19T14:00:16.852Z,37.90
2023-04-19T14:02:45.222Z,38.10
2023-04-19T14:05:12.598Z,38.00
2023-04-19T14:07:40.796Z,38.00
2023-04-19T14:10:10.094Z,38.30
2023-04-19T14:12:37.322Z,38.40
2023-04-19T14:15:04.887Z,38.20
2023-04-19T14:17:32.261Z,38.20
2023-04-19T14:19:59.348Z,38.20
2023-04-19T14:22:26.770Z,38.20
2023-04-19T14:24:53.986Z,38.20
2023-04-19T14:27:21.180Z,38.20
2023-04-19T14:29:48.385Z,38.30
2023-04-19T14:32:25.865Z,38.50
2023-04-19T14:34:58.743Z,38.60
2023-04-19T14:37:26.166Z,38.70
2023-04-19T14:39:53.617Z,38.70
2023-04-19T14:42:22.800Z,38.80
2023-04-19T14:44:53.368Z,38.80
2023-04-19T14:47:21.241Z,38.90
2023-04-19T14:49:48.619Z,39.00
2023-04-19T14:52:16.522Z,39.10
2023-04-19T14:54:43.696Z,39.20
2023-04-19T14:57:10.915Z,39.30
2023-04-19T14:59:38.159Z,39.40
2023-04-19T15:02:05.953Z,39.50
2023-04-19T15:04:39.930Z,39.70
2023-04-19T15:07:08.254Z,39.90
2023-04-19T15:09:35.699Z,40.00
2023-04-19T15:12:02.877Z,40.10
2023-04-19T15:14:30.206Z,40.10
2023-04-19T15:16:57.503Z,40.30
2023-04-19T15:19:24.769Z,40.60
2023-04-19T15:21:51.899Z,40.80
2023-04-19T15:24:19.169Z,40.90
2023-04-19T15:26:46.293Z,40.90
2023-04-19T15:29:13.683Z,41.10
2023-04-19T15:31:40.920Z,41.10
2023-04-19T15:34:08.057Z,41.10
2023-04-19T15:36:35.168Z,41.20
2023-04-19T15:39:02.354Z,41.10
2023-04-19T15:41:29.439Z,41.20
2023-04-19T15:43:57.836Z,41.20
2023-04-19T15:46:25.119Z,41.10
2023-04-19T15:48:52.300Z,41.00
2023-04-19T15:51:19.485Z,41.10
2023-04-19T15:53:46.601Z,41.30
2023-04-19T15:56:13.688Z,41.50
2023-04-19T15:58:40.808Z,41.50
2023-04-19T16:01:15.755Z,41.60
2023-04-19T16:03:45.188Z,42.30
2023-04-19T16:06:12.480Z,43.60
2023-04-19T16:08:39.789Z,45.80
2023-04-19T16:11:06.895Z,46.70
2023-04-19T16:13:34.032Z,47.60
2023-04-19T16:16:01.840Z,47.20
2023-04-19T16:18:29.076Z,46.80
2023-04-19T16:20:56.213Z,46.70
2023-04-19T16:23:25.137Z,46.00
2023-04-19T16:25:52.992Z,46.00
2023-04-19T16:28:21.369Z,47.10
2023-04-19T16:30:48.631Z,47.40
2023-04-19T16:33:16.063Z,47.30
2023-04-19T16:35:43.356Z,46.90
2023-04-19T16:38:10.741Z,46.40
2023-04-19T16:40:37.929Z,46.00
2023-04-19T16:43:06.486Z,45.80
2023-04-19T16:45:34.025Z,45.30
2023-04-19T16:48:01.375Z,45.10
2023-04-19T16:50:28.517Z,44.80
2023-04-19T16:52:55.740Z,44.70
2023-04-19T16:55:22.989Z,44.40
2023-04-19T16:57:51.297Z,44.30
2023-04-19T17:00:18.901Z,44.30
2023-04-19T17:02:46.195Z,44.30
2023-04-19T17:05:14.614Z,44.20
2023-04-19T17:07:41.970Z,44.30
2023-04-19T17:10:09.845Z,44.30
2023-04-19T17:12:37.110Z,44.50
2023-04-19T17:15:04.692Z,44.80
2023-04-19T17:17:31.938Z,45.20
2023-04-19T17:19:59.255Z,45.70
2023-04-19T17:22:26.415Z,46.10
2023-04-19T17:24:55.989Z,46.30
2023-04-19T17:27:23.235Z,46.50
2023-04-19T17:29:50.481Z,46.40
2023-04-19T17:32:17.681Z,46.40
2023-04-19T17:34:44.942Z,46.20
2023-04-19T17:37:12.115Z,46.10
2023-04-19T17:39:39.232Z,45.90
2023-04-19T17:42:06.569Z,45.80
2023-04-19T17:44:33.737Z,45.70
2023-04-19T17:47:01.075Z,45.60
2023-04-19T17:49:29.319Z,45.50
2023-04-19T17:51:56.895Z,45.40
2023-04-19T17:54:24.037Z,45.40
2023-04-19T17:56:52.717Z,45.30
2023-04-19T17:59:19.958Z,45.30
2023-04-19T18:01:47.225Z,45.30
2023-04-19T18:04:17.973Z,45.20
2023-04-19T18:06:46.040Z,45.20
2023-04-19T18:09:13.439Z,45.20
2023-04-19T18:11:41.153Z,45.20
2023-04-19T18:14:08.511Z,45.20
2023-04-19T18:16:35.769Z,45.10
2023-04-19T18:19:03.064Z,45.10
2023-04-19T18:21:30.282Z,45.10
2023-04-19T18:23:57.400Z,45.10
2023-04-19T18:26:24.541Z,45.10
2023-04-19T18:28:51.967Z,45.20
2023-04-19T18:31:19.140Z,45.10
2023-04-19T18:33:46.269Z,45.20
2023-04-19T18:36:13.358Z,45.20
2023-04-19T18:38:40.507Z,45.20
2023-04-19T18:41:08.041Z,45.20
2023-04-19T18:43:35.139Z,45.20
2023-04-19T18:46:02.565Z,45.20
2023-04-19T18:48:30.105Z,45.20
2023-04-19T18:50:57.967Z,45.20
2023-04-19T18:53:31.857Z,45.10
2023-04-19T18:55:59.199Z,45.10
2023-04-19T18:58:28.607Z,45.20
2023-04-19T19:00:57.048Z,45.20
2023-04-19T19:05:55.309Z,45.10
2023-04-19T19:08:22.928Z,45.10
2023-04-19T19:11:13.755Z,45.10
2023-04-19T19:13:37.348Z,45.10
2023-04-19T19:16:05.900Z,45.10
2023-04-19T19:18:33.154Z,45.10
2023-04-19T19:21:00.539Z,45.10
2023-04-19T19:23:35.899Z,45.10
2023-04-19T19:26:06.604Z,45.00
2023-04-19T19:28:34.491Z,45.00
2023-04-19T19:31:01.861Z,45.00
2023-04-19T19:33:32.813Z,45.00
2023-04-19T19:36:00.145Z,45.00
2023-04-19T19:38:27.401Z,45.00
2023-04-19T19:41:30.906Z,45.00
2023-04-19T19:43:41.919Z,45.00
2023-04-19T19:46:10.727Z,45.00
2023-04-19T19:48:42.356Z,45.00
2023-04-19T19:51:36.195Z,45.00
2023-04-19T19:53:57.409Z,45.00
2023-04-19T19:56:25.376Z,45.00
2023-04-19T19:58:52.552Z,45.00
2023-04-19T20:01:22.799Z,45.00
2023-04-19T20:03:50.844Z,45.00
2023-04-19T20:07:07.785Z,45.00
2023-04-19T20:09:05.335Z,45.00
2023-04-19T20:11:32.528Z,45.00
2023-04-19T20:13:59.613Z,45.00
2023-04-19T20:16:27.408Z,45.00
2023-04-19T20:18:54.762Z,45.10
2023-04-19T20:21:21.905Z,45.00
2023-04-19T20:23:48.993Z,45.00
2023-04-19T20:26:16.080Z,45.00
2023-04-19T20:28:43.219Z,45.00
2023-04-19T20:31:10.761Z,45.10
2023-04-19T20:33:37.920Z,45.00
2023-04-19T20:36:05.078Z,45.00
2023-04-19T20:38:32.730Z,45.00
2023-04-19T20:40:59.789Z,45.00
2023-04-19T20:43:27.090Z,45.00
2023-04-19T20:45:54.260Z,45.00
2023-04-19T20:48:21.552Z,44.90
2023-04-19T20:50:48.741Z,44.90
2023-04-19T20:53:15.850Z,44.90
2023-04-19T20:55:43.782Z,44.90
2023-04-19T20:58:11.272Z,44.90
2023-04-19T21:00:38.407Z,44.90
2023-04-19T21:03:06.611Z,44.90
2023-04-19T21:05:35.258Z,44.80
2023-04-19T21:08:02.740Z,44.80
2023-04-19T21:10:30.019Z,44.80
2023-04-19T21:12:57.205Z,44.80
2023-04-19T21:15:24.372Z,44.80
2023-04-19T21:17:51.602Z,44.80
2023-04-19T21:20:18.897Z,45.40
2023-04-19T21:22:47.300Z,44.90
2023-04-19T21:25:14.627Z,44.80
2023-04-19T21:27:42.473Z,44.90
2023-04-19T21:30:10.665Z,44.90
2023-04-19T21:32:37.842Z,44.90
2023-04-19T21:35:05.437Z,44.90
2023-04-19T21:37:32.551Z,45.00
2023-04-19T21:39:59.730Z,45.00
2023-04-19T21:42:26.847Z,44.90
2023-04-19T21:44:53.973Z,45.00
2023-04-19T21:47:21.461Z,44.90
2023-04-19T21:49:48.586Z,44.90
2023-04-19T21:52:15.675Z,45.00
2023-04-19T21:54:42.792Z,45.00
2023-04-19T21:57:11.180Z,45.00
2023-04-19T21:59:38.560Z,44.90
2023-04-19T22:02:05.862Z,45.00
2023-04-19T22:04:33.171Z,45.00
2023-04-19T22:07:03.336Z,45.00
2023-04-19T22:09:31.147Z,45.00
2023-04-19T22:11:58.369Z,45.00
2023-04-19T22:14:25.467Z,45.00
2023-04-19T22:16:54.074Z,45.00
2023-04-19T22:19:21.370Z,45.00
2023-04-19T22:21:48.558Z,45.00
2023-04-19T22:24:15.974Z,45.00
2023-04-19T22:26:43.501Z,45.00
2023-04-19T22:29:10.694Z,45.00
2023-04-19T22:31:37.894Z,45.00
2023-04-19T22:34:05.106Z,45.00
2023-04-19T22:36:32.297Z,45.00
2023-04-19T22:38:59.549Z,45.00
2023-04-19T22:41:26.704Z,45.00
2023-04-19T22:43:54.359Z,45.00
2023-04-19T22:46:21.616Z,44.90
2023-04-19T22:48:50.054Z,44.90
2023-04-19T22:51:18.393Z,44.90
2023-04-19T22:53:45.518Z,44.90
2023-04-19T22:56:12.692Z,44.80
2023-04-19T22:58:39.803Z,44.80
2023-04-19T23:01:07.012Z,44.80
2023-04-19T23:03:34.410Z,44.90
2023-04-19T23:06:03.488Z,44.70
2023-04-19T23:08:31.094Z,44.80
2023-04-19T23:10:58.204Z,44.80
2023-04-19T23:13:25.288Z,44.80
2023-04-19T23:15:52.992Z,44.80
2023-04-19T23:18:21.439Z,44.80
2023-04-19T23:20:48.601Z,44.90
2023-04-19T23:23:15.791Z,44.90
2023-04-19T23:25:42.971Z,44.90
2023-04-19T23:28:12.479Z,44.90
2023-04-19T23:30:39.998Z,44.90
2023-04-19T23:33:07.198Z,44.90
2023-04-19T23:35:34.467Z,44.90
2023-04-19T23:38:01.582Z,44.90
2023-04-19T23:40:28.784Z,44.90
2023-04-19T23:42:55.959Z,44.90
2023-04-19T23:45:23.134Z,44.90
2023-04-19T23:47:50.947Z,44.90
2023-04-19T23:50:18.131Z,44.90
2023-04-19T23:52:45.265Z,44.90
2023-04-19T23:55:12.835Z,44.90
2023-04-19T23:57:40.093Z,44.90
